createdAt,value
2022-11-06T00:01:56.202Z,100657.84
2022-11-06T00:04:25.853Z,100662.09
2022-11-06T00:06:52.790Z,100653.28
2022-11-06T00:09:23.685Z,100661.19
2022-11-06T00:11:56.484Z,100667.38
2022-11-06T00:14:26.167Z,100667.38
2022-11-06T00:16:55.781Z,100650.75
2022-11-06T00:19:25.342Z,100650.09
2022-11-06T00:21:54.912Z,100649.38
2022-11-06T00:24:24.541Z,100656.25
2022-11-06T00:26:56.865Z,100651.13
2022-11-06T00:29:26.593Z,100649.31
2022-11-06T00:31:56.132Z,100652.91
2022-11-06T00:34:25.700Z,100663.44
2022-11-06T00:36:55.354Z,100664.34
2022-11-06T00:39:24.879Z,100665.34
2022-11-06T00:41:57.005Z,100676.91
2022-11-06T00:44:26.634Z,100672.50
2022-11-06T00:46:56.204Z,100670.63
2022-11-06T00:49:25.797Z,100662.84
2022-11-06T00:51:55.326Z,100665.69
2022-11-06T00:54:24.862Z,100654.25
2022-11-06T00:56:57.026Z,100653.44
2022-11-06T00:59:26.624Z,100646.41
2022-11-06T01:01:56.259Z,100664.13
2022-11-06T01:04:27.030Z,100655.47
2022-11-06T01:06:58.480Z,100663.31
2022-11-06T01:09:29.800Z,100664.28
2022-11-06T01:12:18.176Z,100660.94
2022-11-06T01:14:47.870Z,100662.78
2022-11-06T01:17:17.560Z,100666.16
2022-11-06T01:19:47.161Z,100661.88
2022-11-06T01:22:16.713Z,100655.88
2022-11-06T01:24:46.555Z,100651.53
2022-11-06T01:27:27.357Z,100645.34
2022-11-06T01:29:57.599Z,100643.59
2022-11-06T01:32:27.336Z,100641.75
2022-11-06T01:34:56.937Z,100631.34
2022-11-06T01:37:26.533Z,100635.84
2022-11-06T01:39:56.054Z,100629.66
2022-11-06T01:42:28.206Z,100631.50
2022-11-06T01:45:29.342Z,100619.84
2022-11-06T01:47:59.051Z,100626.19
2022-11-06T01:50:28.782Z,100606.66
2022-11-06T01:53:00.800Z,100601.66
2022-11-06T01:55:33.577Z,100600.59
2022-11-06T01:58:07.876Z,100599.75
2022-11-06T02:00:37.444Z,100602.88
2022-11-06T02:03:07.225Z,100598.41
2022-11-06T02:05:37.004Z,100587.88
2022-11-06T02:08:07.038Z,100582.69
2022-11-06T02:10:36.838Z,100586.13
2022-11-06T02:13:24.314Z,100575.81
2022-11-06T02:16:00.478Z,100588.81
2022-11-06T02:18:51.593Z,100587.84
2022-11-06T02:21:50.684Z,100595.72
2022-11-06T02:24:33.422Z,100608.91
2022-11-06T02:27:12.915Z,100597.75
2022-11-06T02:29:50.136Z,100594.06
2022-11-06T02:32:23.150Z,100584.53
2022-11-06T02:34:54.814Z,100588.94
2022-11-06T02:37:29.654Z,100585.25
2022-11-06T02:40:02.285Z,100583.75
2022-11-06T02:42:35.162Z,100584.72
2022-11-06T02:45:05.255Z,100586.63
2022-11-06T02:47:35.597Z,100584.00
2022-11-06T02:50:08.083Z,100586.69
2022-11-06T02:52:40.523Z,100592.66
2022-11-06T02:55:13.769Z,100584.94
2022-11-06T02:57:48.235Z,100579.63
2022-11-06T03:00:19.422Z,100571.91
2022-11-06T03:02:53.019Z,100564.88
2022-11-06T03:05:26.159Z,100551.56
2022-11-06T03:07:59.767Z,100549.06
2022-11-06T03:10:33.935Z,100551.75
2022-11-06T03:13:12.533Z,100560.56
2022-11-06T03:15:45.067Z,100550.13
2022-11-06T03:18:16.726Z,100543.94
2022-11-06T03:20:51.003Z,100541.22
2022-11-06T03:23:23.687Z,100531.59
2022-11-06T03:25:57.021Z,100532.31
2022-11-06T03:28:33.564Z,100531.38
2022-11-06T03:31:06.082Z,100536.78
2022-11-06T03:33:38.652Z,100541.91
2022-11-06T03:36:11.978Z,100533.22
2022-11-06T03:38:44.318Z,100523.75
2022-11-06T03:41:16.786Z,100535.47
2022-11-06T03:43:50.936Z,100547.81
2022-11-06T03:46:25.101Z,100555.75
2022-11-06T03:48:57.023Z,100545.09
2022-11-06T03:51:29.718Z,100549.47
2022-11-06T03:54:02.012Z,100552.09
2022-11-06T03:56:35.700Z,100545.13
2022-11-06T03:59:09.369Z,100560.09
2022-11-06T04:01:44.559Z,100559.88
2022-11-06T04:04:17.376Z,100555.59
2022-11-06T04:06:50.090Z,100559.09
2022-11-06T04:09:33.510Z,100553.78
2022-11-06T04:12:17.579Z,100559.78
2022-11-06T04:14:52.920Z,100548.34
2022-11-06T04:17:23.272Z,100540.44
2022-11-06T04:19:56.212Z,100535.13
2022-11-06T04:22:37.360Z,100544.50
2022-11-06T04:25:24.126Z,100550.78
2022-11-06T04:28:02.792Z,100533.28
2022-11-06T04:30:38.491Z,100528.91
2022-11-06T04:33:10.790Z,100529.69
2022-11-06T04:35:50.591Z,100538.59
2022-11-06T04:38:28.294Z,100521.00
2022-11-06T04:41:05.436Z,100533.19
2022-11-06T04:43:42.235Z,100513.34
2022-11-06T04:46:16.949Z,100516.09
2022-11-06T04:48:47.530Z,100513.50
2022-11-06T04:51:17.972Z,100525.09
2022-11-06T04:53:47.651Z,100518.81
2022-11-06T04:56:25.793Z,100511.81
2022-11-06T04:58:55.628Z,100517.94
2022-11-06T05:01:28.225Z,100514.69
2022-11-06T05:03:58.070Z,100505.84
2022-11-06T05:06:30.222Z,100501.56
2022-11-06T05:09:01.233Z,100498.81
2022-11-06T05:11:30.847Z,100490.88
2022-11-06T05:14:00.437Z,100468.09
2022-11-06T05:16:32.604Z,100484.03
2022-11-06T05:19:02.170Z,100469.97
2022-11-06T05:21:44.201Z,100466.44
2022-11-06T05:24:13.909Z,100464.59
2022-11-06T05:26:43.483Z,100454.16
2022-11-06T05:29:14.308Z,100448.97
2022-11-06T05:31:46.435Z,100448.78
2022-11-06T05:34:16.018Z,100449.69
2022-11-06T05:36:45.690Z,100438.53
2022-11-06T05:39:15.258Z,100447.34
2022-11-06T05:41:44.820Z,100440.50
2022-11-06T05:44:14.779Z,100446.41
2022-11-06T05:46:49.214Z,100442.84
2022-11-06T05:49:19.975Z,100445.41
2022-11-06T05:51:49.705Z,100447.25
2022-11-06T05:54:19.274Z,100426.88
2022-11-06T05:56:48.898Z,100442.66
2022-11-06T05:59:18.460Z,100434.56
2022-11-06T06:01:50.703Z,100435.44
2022-11-06T06:04:20.360Z,100434.53
2022-11-06T06:06:49.892Z,100416.47
2022-11-06T06:09:19.460Z,100407.72
2022-11-06T06:11:49.163Z,100404.97
2022-11-06T06:14:18.731Z,100401.56
2022-11-06T06:16:50.894Z,100406.09
2022-11-06T06:19:20.491Z,100401.56
2022-11-06T06:21:50.032Z,100408.53
2022-11-06T06:24:19.879Z,100421.63
2022-11-06T06:26:49.750Z,100416.97
2022-11-06T06:29:19.473Z,100420.59
2022-11-06T06:31:51.917Z,100409.97
2022-11-06T06:34:21.855Z,100402.06
2022-11-06T06:36:52.928Z,100401.00
2022-11-06T06:39:23.361Z,100402.66
2022-11-06T06:41:53.066Z,100397.38
2022-11-06T06:44:22.667Z,100402.50
2022-11-06T06:46:54.789Z,100397.31
2022-11-06T06:49:24.385Z,100399.00
2022-11-06T06:51:54.158Z,100409.41
2022-11-06T06:54:23.728Z,100415.47
2022-11-06T06:56:53.366Z,100412.00
2022-11-06T06:59:22.928Z,100413.56
2022-11-06T07:01:55.193Z,100423.28
2022-11-06T07:04:24.852Z,100411.88
2022-11-06T07:06:56.188Z,100417.06
2022-11-06T07:09:26.547Z,100412.56
2022-11-06T07:11:56.099Z,100422.19
2022-11-06T07:14:25.644Z,100421.22
2022-11-06T07:16:57.814Z,100422.06
2022-11-06T07:19:27.582Z,100421.06
2022-11-06T07:21:57.111Z,100420.84
2022-11-06T07:24:26.678Z,100429.81
2022-11-06T07:26:56.488Z,100426.53
2022-11-06T07:29:26.242Z,100436.19
2022-11-06T07:31:58.410Z,100425.59
2022-11-06T07:34:28.041Z,100419.44
2022-11-06T07:36:57.654Z,100426.19
2022-11-06T07:39:27.330Z,100432.56
2022-11-06T07:41:58.115Z,100434.84
2022-11-06T07:44:35.856Z,100419.09
2022-11-06T07:47:08.087Z,100439.19
2022-11-06T07:49:37.698Z,100420.56
2022-11-06T07:52:07.926Z,100414.09
2022-11-06T07:54:37.719Z,100413.06
2022-11-06T07:57:07.270Z,100407.25
2022-11-06T07:59:36.823Z,100408.03
2022-11-06T08:02:09.102Z,100408.84
2022-11-06T08:04:38.745Z,100398.22
2022-11-06T08:07:08.569Z,100401.44
2022-11-06T08:09:38.406Z,100411.41
2022-11-06T08:12:08.602Z,100400.19
2022-11-06T08:14:41.457Z,100392.53
2022-11-06T08:17:13.830Z,100395.78
2022-11-06T08:19:43.371Z,100398.03
2022-11-06T08:22:12.868Z,100387.13
2022-11-06T08:24:42.474Z,100405.78
2022-11-06T08:27:12.216Z,100396.72
2022-11-06T08:29:41.957Z,100401.06
2022-11-06T08:32:14.176Z,100390.56
2022-11-06T08:34:43.809Z,100387.75
2022-11-06T08:37:13.500Z,100402.44
2022-11-06T08:39:44.417Z,100383.81
2022-11-06T08:42:14.042Z,100380.19
2022-11-06T08:44:44.039Z,100375.00
2022-11-06T08:47:16.158Z,100372.44
2022-11-06T08:49:45.890Z,100368.63
2022-11-06T08:52:15.464Z,100368.31
2022-11-06T08:54:45.038Z,100352.09
2022-11-06T08:57:15.683Z,100375.28
2022-11-06T08:59:45.286Z,100360.28
2022-11-06T09:02:17.909Z,100353.59
2022-11-06T09:04:48.273Z,100353.28
2022-11-06T09:07:19.712Z,100351.81
2022-11-06T09:09:49.598Z,100349.75
2022-11-06T09:12:19.163Z,100339.84
2022-11-06T09:14:48.717Z,100350.13
2022-11-06T09:17:23.704Z,100338.78
2022-11-06T09:19:53.325Z,100332.53
2022-11-06T09:22:23.033Z,100340.94
2022-11-06T09:25:07.708Z,100330.31
2022-11-06T09:27:44.394Z,100324.06
2022-11-06T09:30:15.977Z,100328.53
2022-11-06T09:32:51.944Z,100320.28
2022-11-06T09:35:22.397Z,100311.25
2022-11-06T09:37:52.070Z,100314.47
2022-11-06T09:40:24.044Z,100302.41
2022-11-06T09:43:02.520Z,100309.31
2022-11-06T09:45:34.187Z,100310.56
2022-11-06T09:48:16.655Z,100309.72
2022-11-06T09:50:51.279Z,100287.75
2022-11-06T09:53:23.246Z,100297.00
2022-11-06T09:55:53.141Z,100293.22
2022-11-06T09:58:25.235Z,100294.63
2022-11-06T10:00:55.994Z,100288.88
2022-11-06T10:03:33.380Z,100294.94
2022-11-06T10:06:02.993Z,100293.13
2022-11-06T10:08:34.069Z,100287.94
2022-11-06T10:11:21.960Z,100284.63
2022-11-06T10:13:59.012Z,100284.22
2022-11-06T10:16:35.372Z,100280.25
2022-11-06T10:19:13.732Z,100281.06
2022-11-06T10:21:50.204Z,100275.44
2022-11-06T10:24:28.545Z,100270.63
2022-11-06T10:26:59.503Z,100267.59
2022-11-06T10:29:42.859Z,100266.59
2022-11-06T10:32:26.042Z,100271.56
2022-11-06T10:35:02.063Z,100242.44
2022-11-06T10:37:33.644Z,100253.25
2022-11-06T10:40:07.172Z,100237.31
2022-11-06T10:42:39.850Z,100242.75
2022-11-06T10:45:15.472Z,100236.63
2022-11-06T10:47:48.308Z,100232.19
2022-11-06T10:50:20.992Z,100231.19
2022-11-06T10:52:55.067Z,100232.34
2022-11-06T10:55:48.632Z,100227.78
2022-11-06T10:58:21.131Z,100236.72
2022-11-06T11:00:52.522Z,100225.75
2022-11-06T11:03:26.544Z,100216.81
2022-11-06T11:05:58.701Z,100218.34
2022-11-06T11:08:36.049Z,100222.78
2022-11-06T11:11:06.570Z,100208.63
2022-11-06T11:13:36.453Z,100208.03
2022-11-06T11:16:06.593Z,100187.28
2022-11-06T11:18:36.128Z,100183.56
2022-11-06T11:21:23.476Z,100175.31
2022-11-06T11:24:08.857Z,100171.66
2022-11-06T11:26:41.431Z,100179.31
2022-11-06T11:29:20.420Z,100170.22
2022-11-06T11:31:53.265Z,100163.25
2022-11-06T11:34:24.845Z,100158.53
2022-11-06T11:37:00.189Z,100154.13
2022-11-06T11:39:33.377Z,100147.03
2022-11-06T11:42:29.338Z,100147.75
2022-11-06T11:45:20.793Z,100128.22
2022-11-06T11:47:52.037Z,100131.81
2022-11-06T11:50:28.773Z,100123.13
2022-11-06T11:53:09.687Z,100117.66
2022-11-06T11:55:46.034Z,100125.28
2022-11-06T11:58:22.487Z,100120.81
2022-11-06T12:00:58.131Z,100114.28
2022-11-06T12:03:30.123Z,100096.13
2022-11-06T12:06:09.361Z,100096.38
2022-11-06T12:08:42.768Z,100095.88
2022-11-06T12:11:16.068Z,100091.78
2022-11-06T12:13:45.707Z,100088.38
2022-11-06T12:16:18.316Z,100073.03
2022-11-06T12:18:53.472Z,100070.56
2022-11-06T12:21:29.009Z,100056.66
2022-11-06T12:24:06.212Z,100060.06
2022-11-06T12:26:38.385Z,100040.72
2022-11-06T12:29:12.883Z,100036.72
2022-11-06T12:31:45.674Z,100031.16
2022-11-06T12:34:19.682Z,100012.59
2022-11-06T12:37:02.089Z,100002.28
2022-11-06T12:39:36.574Z,99998.03
2022-11-06T12:42:07.321Z,99989.84
2022-11-06T12:44:36.920Z,99984.72
2022-11-06T12:47:10.716Z,99996.34
2022-11-06T12:50:10.805Z,99994.56
2022-11-06T12:52:51.898Z,99994.56
2022-11-06T12:55:27.526Z,99985.00
2022-11-06T12:58:14.415Z,99979.25
2022-11-06T13:00:53.657Z,99985.78
2022-11-06T13:03:50.166Z,99996.16
2022-11-06T13:06:25.915Z,100002.56
2022-11-06T13:08:59.145Z,99994.22
2022-11-06T13:11:36.966Z,99987.81
2022-11-06T13:14:14.761Z,99992.00
2022-11-06T13:16:48.109Z,99991.38
2022-11-06T13:19:24.313Z,99992.31
2022-11-06T13:22:23.360Z,99989.75
2022-11-06T13:24:58.047Z,99990.69
2022-11-06T13:27:34.424Z,99991.72
2022-11-06T13:30:07.258Z,99977.88
2022-11-06T13:32:37.932Z,99967.19
2022-11-06T13:35:16.816Z,99978.91
2022-11-06T13:37:48.868Z,99971.50
2022-11-06T13:40:23.995Z,99960.31
2022-11-06T13:43:00.990Z,99964.44
2022-11-06T13:45:31.292Z,99970.38
2022-11-06T13:48:09.698Z,99959.06
2022-11-06T13:50:44.715Z,99961.91
2022-11-06T13:53:20.485Z,99967.44
2022-11-06T13:56:00.083Z,99967.44
2022-11-06T13:59:15.652Z,99973.50
2022-11-06T14:01:55.316Z,99982.03
2022-11-06T14:04:57.294Z,99970.63
2022-11-06T14:07:29.832Z,99970.72
2022-11-06T14:09:59.519Z,99969.88
2022-11-06T14:12:29.179Z,99963.72
2022-11-06T14:15:17.944Z,99961.75
2022-11-06T14:17:57.426Z,99954.78
2022-11-06T14:20:32.590Z,99947.59
2022-11-06T14:23:32.211Z,99943.75
2022-11-06T14:26:03.310Z,99937.63
2022-11-06T14:28:37.085Z,99948.00
2022-11-06T14:31:12.672Z,99933.28
2022-11-06T14:34:02.425Z,99943.09
2022-11-06T14:36:37.465Z,99941.22
2022-11-06T14:39:12.886Z,99940.38
2022-11-06T14:42:00.157Z,99939.41
2022-11-06T14:44:49.243Z,99939.53
2022-11-06T14:47:42.438Z,99938.91
2022-11-06T14:50:27.631Z,99934.69
2022-11-06T14:52:59.267Z,99943.34
2022-11-06T14:55:31.570Z,99929.09
2022-11-06T14:58:04.039Z,99936.38
2022-11-06T15:00:39.745Z,99944.97
2022-11-06T15:03:22.282Z,99932.13
2022-11-06T15:05:52.854Z,99935.63
2022-11-06T15:09:07.229Z,99927.94
2022-11-06T15:12:00.699Z,99919.28
2022-11-06T15:15:01.068Z,99929.94
2022-11-06T15:17:40.966Z,99921.22
2022-11-06T15:20:33.991Z,99922.25
2022-11-06T15:23:13.420Z,99929.16
2022-11-06T15:25:50.305Z,99923.56
2022-11-06T15:28:23.829Z,99930.53
2022-11-06T15:30:55.695Z,99927.03
2022-11-06T15:33:29.920Z,99929.97
2022-11-06T15:36:06.442Z,99927.22
2022-11-06T15:38:41.388Z,99929.13
2022-11-06T15:41:15.322Z,99937.38
2022-11-06T15:43:47.055Z,99950.75
2022-11-06T15:46:21.460Z,99947.84
2022-11-06T15:48:52.106Z,99949.88
2022-11-06T15:51:29.304Z,99931.16
2022-11-06T15:53:58.848Z,99933.72
2022-11-06T15:56:32.419Z,99944.03
2022-11-06T15:59:11.496Z,99944.25
2022-11-06T16:01:41.712Z,99954.97
2022-11-06T16:04:17.667Z,99955.91
2022-11-06T16:06:50.356Z,99964.47
2022-11-06T16:09:22.066Z,99971.16
2022-11-06T16:11:53.570Z,99971.16
2022-11-06T16:14:23.576Z,99972.19
2022-11-06T16:16:54.570Z,99960.38
2022-11-06T16:19:31.711Z,99964.25
2022-11-06T16:22:07.607Z,99949.78
2022-11-06T16:24:43.348Z,99928.97
2022-11-06T16:27:13.532Z,99906.13
2022-11-06T16:29:48.943Z,99851.34
2022-11-06T16:32:20.332Z,99847.28
2022-11-06T16:34:51.735Z,99865.16
2022-11-06T16:37:42.460Z,99857.72
2022-11-06T16:40:49.865Z,99837.53
2022-11-06T16:43:21.637Z,99809.34
2022-11-06T16:45:56.040Z,99793.09
2022-11-06T16:48:44.963Z,99801.28
2022-11-06T16:51:16.005Z,99812.03
2022-11-06T16:53:56.284Z,99798.66
2022-11-06T16:56:28.066Z,99809.56
2022-11-06T16:59:01.154Z,99799.03
2022-11-06T17:01:32.185Z,99799.88
2022-11-06T17:04:03.596Z,99798.19
2022-11-06T17:06:34.454Z,99803.75
2022-11-06T17:09:10.192Z,99811.25
2022-11-06T17:11:40.281Z,99813.03
2022-11-06T17:14:21.225Z,99806.06
2022-11-06T17:16:52.560Z,99807.09
2022-11-06T17:19:23.345Z,99822.03
2022-11-06T17:21:53.076Z,99820.16
2022-11-06T17:24:41.493Z,99798.03
2022-11-06T17:27:11.103Z,99799.81
2022-11-06T17:29:40.687Z,99793.78
2022-11-06T17:32:10.347Z,99801.59
2022-11-06T17:34:40.011Z,99796.47
2022-11-06T17:37:09.814Z,99791.84
2022-11-06T17:39:42.079Z,99785.66
2022-11-06T17:42:11.662Z,99788.97
2022-11-06T17:44:41.205Z,99783.63
2022-11-06T17:47:11.134Z,99771.41
2022-11-06T17:49:40.753Z,99769.88
2022-11-06T17:52:10.334Z,99746.34
2022-11-06T17:54:42.518Z,99741.41
2022-11-06T17:57:12.058Z,99738.69
2022-11-06T17:59:41.841Z,99725.78
2022-11-06T18:02:14.520Z,99726.53
2022-11-06T18:04:44.428Z,99720.75
2022-11-06T18:07:13.942Z,99719.97
2022-11-06T18:09:46.120Z,99709.22
2022-11-06T18:12:17.545Z,99706.69
2022-11-06T18:14:47.119Z,99706.91
2022-11-06T18:17:16.788Z,99698.88
2022-11-06T18:19:46.429Z,99707.81
2022-11-06T18:22:16.162Z,99715.56
2022-11-06T18:24:48.359Z,99720.91
2022-11-06T18:27:17.923Z,99725.16
2022-11-06T18:29:47.451Z,99730.44
2022-11-06T18:32:17.362Z,99748.03
2022-11-06T18:34:46.931Z,99749.69
2022-11-06T18:37:16.483Z,99744.94
2022-11-06T18:39:48.662Z,99720.41
2022-11-06T18:42:18.256Z,99728.25
2022-11-06T18:44:47.799Z,99709.69
2022-11-06T18:47:17.565Z,99713.84
2022-11-06T18:49:47.202Z,99727.94
2022-11-06T18:52:32.450Z,99735.44
2022-11-06T18:55:09.863Z,99738.78
2022-11-06T18:57:39.448Z,99736.19
2022-11-06T19:00:13.228Z,99740.47
2022-11-06T19:02:43.111Z,99753.63
2022-11-06T19:05:12.954Z,99750.06
2022-11-06T19:07:45.186Z,99740.47
2022-11-06T19:10:21.683Z,99737.00
2022-11-06T19:12:51.255Z,99752.53
2022-11-06T19:15:21.946Z,99760.41
2022-11-06T19:17:55.294Z,99754.31
2022-11-06T19:20:25.070Z,99748.91
2022-11-06T19:22:55.304Z,99750.44
2022-11-06T19:25:27.534Z,99757.25
2022-11-06T19:27:57.968Z,99750.03
2022-11-06T19:30:27.715Z,99753.44
2022-11-06T19:32:57.307Z,99762.88
2022-11-06T19:35:26.889Z,99769.00
2022-11-06T19:37:56.460Z,99757.44
2022-11-06T19:40:28.869Z,99760.78
2022-11-06T19:43:00.351Z,99756.97
2022-11-06T19:45:29.961Z,99770.84
2022-11-06T19:48:02.388Z,99774.50
2022-11-06T19:50:58.043Z,99769.38
2022-11-06T19:53:22.478Z,99763.09
2022-11-06T19:55:56.029Z,99768.28
2022-11-06T19:58:25.959Z,99770.94
2022-11-06T20:00:55.555Z,99770.75
2022-11-06T20:03:25.125Z,99769.69
2022-11-06T20:05:55.629Z,99770.56
2022-11-06T20:08:25.198Z,99774.16
2022-11-06T20:10:57.327Z,99781.09
2022-11-06T20:13:26.932Z,99794.03
2022-11-06T20:15:59.617Z,99793.19
2022-11-06T20:18:29.220Z,99802.97
2022-11-06T20:21:02.394Z,99809.16
2022-11-06T20:23:32.252Z,99809.00
2022-11-06T20:26:04.704Z,99809.16
2022-11-06T20:28:34.564Z,99809.84
2022-11-06T20:31:08.119Z,99812.66
2022-11-06T20:33:38.664Z,99821.41
2022-11-06T20:36:12.281Z,99818.69
2022-11-06T20:38:42.406Z,99824.78
2022-11-06T20:41:14.967Z,99824.03
2022-11-06T20:43:45.818Z,99834.31
2022-11-06T20:46:17.338Z,99825.56
2022-11-06T20:48:47.654Z,99832.44
2022-11-06T20:51:19.590Z,99835.03
2022-11-06T20:53:49.419Z,99830.50
2022-11-06T20:56:25.116Z,99826.84
2022-11-06T20:58:56.757Z,99819.72
2022-11-06T21:01:27.896Z,99818.81
2022-11-06T21:03:58.862Z,99820.59
2022-11-06T21:06:30.358Z,99833.78
2022-11-06T21:08:59.942Z,99835.53
2022-11-06T21:11:32.115Z,99846.06
2022-11-06T21:14:01.708Z,99853.97
2022-11-06T21:16:33.872Z,99848.63
2022-11-06T21:19:03.844Z,99856.38
2022-11-06T21:21:37.108Z,99867.06
2022-11-06T21:24:07.608Z,99866.13
2022-11-06T21:26:40.806Z,99880.91
2022-11-06T21:29:12.878Z,99872.09
2022-11-06T21:31:48.628Z,99873.66
2022-11-06T21:34:19.568Z,99868.38
2022-11-06T21:36:49.766Z,99878.75
2022-11-06T21:39:20.920Z,99880.53
2022-11-06T21:41:53.070Z,99882.22
2022-11-06T21:44:22.587Z,99882.00
2022-11-06T21:46:52.143Z,99895.09
2022-11-06T21:49:21.870Z,99888.72
2022-11-06T21:51:51.621Z,99895.72
2022-11-06T21:54:33.655Z,99901.75
2022-11-06T21:57:05.801Z,99891.78
2022-11-06T21:59:40.487Z,99899.69
2022-11-06T22:02:12.147Z,99888.47
2022-11-06T22:04:41.793Z,99887.31
2022-11-06T22:07:11.600Z,99890.25
2022-11-06T22:09:41.216Z,99889.31
2022-11-06T22:12:13.413Z,99884.91
2022-11-06T22:14:42.984Z,99901.66
2022-11-06T22:17:12.496Z,99905.75
2022-11-06T22:19:42.488Z,99900.50
2022-11-06T22:22:12.277Z,99899.56
2022-11-06T22:24:41.861Z,99901.88
2022-11-06T22:27:14.067Z,99911.78
2022-11-06T22:29:43.616Z,99905.50
2022-11-06T22:32:13.239Z,99911.47
2022-11-06T22:34:42.804Z,99907.16
2022-11-06T22:37:12.367Z,99897.38
2022-11-06T22:39:41.971Z,99916.56
2022-11-06T22:42:14.095Z,99908.53
2022-11-06T22:44:44.271Z,99919.84
2022-11-06T22:47:14.122Z,99908.22
2022-11-06T22:49:43.852Z,99904.63
2022-11-06T22:52:13.505Z,99915.97
2022-11-06T22:54:43.007Z,99912.22
2022-11-06T22:57:15.196Z,99911.28
2022-11-06T22:59:44.755Z,99906.09
2022-11-06T23:02:14.403Z,99914.94
2022-11-06T23:04:44.289Z,99934.16
2022-11-06T23:07:13.877Z,99920.03
2022-11-06T23:09:43.505Z,99921.69
2022-11-06T23:12:18.733Z,99935.94
2022-11-06T23:14:48.400Z,99937.41
2022-11-06T23:17:17.996Z,99932.81
2022-11-06T23:19:47.667Z,99939.03
2022-11-06T23:22:29.672Z,99946.63
2022-11-06T23:25:00.373Z,99947.56
2022-11-06T23:27:32.542Z,99941.44
2022-11-06T23:30:02.621Z,99950.28
2022-11-06T23:32:34.118Z,99945.00
2022-11-06T23:35:04.801Z,99942.19
2022-11-06T23:37:34.854Z,99957.06
2022-11-06T23:40:04.559Z,99951.66
2022-11-06T23:42:36.843Z,99963.81
2022-11-06T23:45:19.549Z,99946.31
2022-11-06T23:47:50.666Z,99948.84
2022-11-06T23:50:20.637Z,99949.53
2022-11-06T23:52:50.306Z,99954.78
2022-11-06T23:55:19.930Z,99952.94
2022-11-06T23:57:52.106Z,99958.13
